sensor_id;sensor_type;location;lat;lon;timestamp;pressure;altitude;pressure_sealevel;temperature;humidity
62708;BME280;48769;51.624;5.886;2023-07-13T00:01:13;101245.00;;;16.85;100.00
62708;BME280;48769;51.624;5.886;2023-07-13T00:03:39;101247.13;;;16.80;100.00
62708;BME280;48769;51.624;5.886;2023-07-13T00:06:06;101252.47;;;16.80;100.00
62708;BME280;48769;51.624;5.886;2023-07-13T00:08:32;101262.63;;;16.75;100.00
62708;BME280;48769;51.624;5.886;2023-07-13T00:10:59;101260.91;;;16.74;100.00
62708;BME280;48769;51.624;5.886;2023-07-13T00:13:24;101257.47;;;16.72;100.00
62708;BME280;48769;51.624;5.886;2023-07-13T00:15:49;101259.38;;;16.70;100.00
62708;BME280;48769;51.624;5.886;2023-07-13T00:18:15;101258.88;;;16.65;100.00
62708;BME280;48769;51.624;5.886;2023-07-13T00:20:40;101253.84;;;16.60;100.00
62708;BME280;48769;51.624;5.886;2023-07-13T00:23:07;101261.97;;;16.58;100.00
62708;BME280;48769;51.624;5.886;2023-07-13T00:25:32;101261.53;;;16.52;100.00
62708;BME280;48769;51.624;5.886;2023-07-13T00:27:57;101259.19;;;16.47;100.00
62708;BME280;48769;51.624;5.886;2023-07-13T00:30:23;101268.38;;;16.43;100.00
62708;BME280;48769;51.624;5.886;2023-07-13T00:32:49;101267.63;;;16.41;100.00
62708;BME280;48769;51.624;5.886;2023-07-13T00:35:15;101267.50;;;16.43;100.00
62708;BME280;48769;51.624;5.886;2023-07-13T00:37:41;101263.03;;;16.43;100.00
62708;BME280;48769;51.624;5.886;2023-07-13T00:40:07;101274.66;;;16.42;100.00
62708;BME280;48769;51.624;5.886;2023-07-13T00:42:33;101269.53;;;16.39;100.00
62708;BME280;48769;51.624;5.886;2023-07-13T00:47:36;101260.91;;;16.35;100.00
62708;BME280;48769;51.624;5.886;2023-07-13T00:50:02;101263.66;;;16.34;100.00
62708;BME280;48769;51.624;5.886;2023-07-13T00:52:29;101259.41;;;16.31;100.00
62708;BME280;48769;51.624;5.886;2023-07-13T00:54:55;101262.16;;;16.30;100.00
62708;BME280;48769;51.624;5.886;2023-07-13T00:57:21;101267.72;;;16.27;100.00
62708;BME280;48769;51.624;5.886;2023-07-13T00:59:59;101265.78;;;16.16;100.00
62708;BME280;48769;51.624;5.886;2023-07-13T01:02:32;101267.50;;;16.17;100.00
62708;BME280;48769;51.624;5.886;2023-07-13T01:04:58;101267.59;;;16.16;100.00
62708;BME280;48769;51.624;5.886;2023-07-13T01:07:24;101271.22;;;16.15;100.00
62708;BME280;48769;51.624;5.886;2023-07-13T01:09:50;101277.84;;;16.09;100.00
62708;BME280;48769;51.624;5.886;2023-07-13T01:12:15;101265.34;;;16.09;100.00
62708;BME280;48769;51.624;5.886;2023-07-13T01:14:40;101271.75;;;16.07;100.00
62708;BME280;48769;51.624;5.886;2023-07-13T01:17:09;101275.59;;;16.03;100.00
62708;BME280;48769;51.624;5.886;2023-07-13T01:19:41;101271.72;;;15.94;100.00
62708;BME280;48769;51.624;5.886;2023-07-13T01:22:15;101276.19;;;15.94;100.00
62708;BME280;48769;51.624;5.886;2023-07-13T01:24:43;101272.97;;;15.88;100.00
62708;BME280;48769;51.624;5.886;2023-07-13T01:27:10;101281.94;;;15.87;100.00
62708;BME280;48769;51.624;5.886;2023-07-13T01:29:39;101279.38;;;15.86;100.00
62708;BME280;48769;51.624;5.886;2023-07-13T01:32:17;101275.56;;;15.90;100.00
62708;BME280;48769;51.624;5.886;2023-07-13T01:34:48;101276.06;;;15.95;100.00
62708;BME280;48769;51.624;5.886;2023-07-13T01:37:13;101277.69;;;15.98;100.00
62708;BME280;48769;51.624;5.886;2023-07-13T01:39:39;101266.19;;;15.97;100.00
62708;BME280;48769;51.624;5.886;2023-07-13T01:42:05;101262.97;;;15.92;100.00
62708;BME280;48769;51.624;5.886;2023-07-13T01:44:30;101265.09;;;15.87;100.00
62708;BME280;48769;51.624;5.886;2023-07-13T01:46:55;101260.50;;;15.89;100.00
62708;BME280;48769;51.624;5.886;2023-07-13T01:49:21;101257.72;;;15.78;100.00
62708;BME280;48769;51.624;5.886;2023-07-13T01:51:46;101264.22;;;15.74;100.00
62708;BME280;48769;51.624;5.886;2023-07-13T01:54:12;101267.59;;;15.76;100.00
62708;BME280;48769;51.624;5.886;2023-07-13T01:56:37;101262.28;;;15.76;100.00
62708;BME280;48769;51.624;5.886;2023-07-13T01:59:02;101263.81;;;15.80;100.00
62708;BME280;48769;51.624;5.886;2023-07-13T02:01:28;101263.16;;;15.76;100.00
62708;BME280;48769;51.624;5.886;2023-07-13T02:03:53;101271.03;;;15.78;100.00
62708;BME280;48769;51.624;5.886;2023-07-13T02:06:19;101272.53;;;15.82;100.00
62708;BME280;48769;51.624;5.886;2023-07-13T02:08:44;101277.66;;;15.85;100.00
62708;BME280;48769;51.624;5.886;2023-07-13T02:11:10;101275.41;;;15.79;100.00
62708;BME280;48769;51.624;5.886;2023-07-13T02:13:35;101276.56;;;15.75;100.00
62708;BME280;48769;51.624;5.886;2023-07-13T02:16:00;101273.13;;;15.73;100.00
62708;BME280;48769;51.624;5.886;2023-07-13T02:18:26;101274.00;;;15.73;100.00
62708;BME280;48769;51.624;5.886;2023-07-13T02:20:51;101275.91;;;15.71;100.00
62708;BME280;48769;51.624;5.886;2023-07-13T02:23:16;101267.81;;;15.73;100.00
62708;BME280;48769;51.624;5.886;2023-07-13T02:25:42;101273.06;;;15.74;100.00
62708;BME280;48769;51.624;5.886;2023-07-13T02:28:07;101266.31;;;15.69;100.00
62708;BME280;48769;51.624;5.886;2023-07-13T02:30:34;101262.97;;;15.65;100.00
62708;BME280;48769;51.624;5.886;2023-07-13T02:32:59;101272.84;;;15.63;100.00
62708;BME280;48769;51.624;5.886;2023-07-13T02:35:24;101273.38;;;15.55;100.00
62708;BME280;48769;51.624;5.886;2023-07-13T02:37:50;101275.38;;;15.52;100.00
62708;BME280;48769;51.624;5.886;2023-07-13T02:40:15;101272.16;;;15.47;100.00
62708;BME280;48769;51.624;5.886;2023-07-13T02:42:41;101269.59;;;15.45;100.00
62708;BME280;48769;51.624;5.886;2023-07-13T02:45:08;101275.69;;;15.47;100.00
62708;BME280;48769;51.624;5.886;2023-07-13T02:47:34;101276.44;;;15.49;100.00
62708;BME280;48769;51.624;5.886;2023-07-13T02:49:59;101274.94;;;15.45;100.00
62708;BME280;48769;51.624;5.886;2023-07-13T02:52:25;101283.69;;;15.47;100.00
62708;BME280;48769;51.624;5.886;2023-07-13T02:54:51;101278.34;;;15.47;100.00
62708;BME280;48769;51.624;5.886;2023-07-13T02:57:16;101277.47;;;15.47;100.00
62708;BME280;48769;51.624;5.886;2023-07-13T02:59:42;101280.25;;;15.45;100.00
62708;BME280;48769;51.624;5.886;2023-07-13T03:02:07;101285.59;;;15.45;100.00
62708;BME280;48769;51.624;5.886;2023-07-13T03:04:38;101283.00;;;15.43;100.00
62708;BME280;48769;51.624;5.886;2023-07-13T03:07:04;101294.63;;;15.42;100.00
62708;BME280;48769;51.624;5.886;2023-07-13T03:09:32;101292.81;;;15.43;100.00
62708;BME280;48769;51.624;5.886;2023-07-13T03:11:58;101298.31;;;15.40;100.00
62708;BME280;48769;51.624;5.886;2023-07-13T03:14:23;101303.84;;;15.37;100.00
62708;BME280;48769;51.624;5.886;2023-07-13T03:16:49;101295.13;;;15.35;100.00
62708;BME280;48769;51.624;5.886;2023-07-13T03:19:15;101308.22;;;15.38;100.00
62708;BME280;48769;51.624;5.886;2023-07-13T03:21:40;101298.53;;;15.37;100.00
62708;BME280;48769;51.624;5.886;2023-07-13T03:24:06;101296.16;;;15.32;100.00
62708;BME280;48769;51.624;5.886;2023-07-13T03:26:31;101296.34;;;15.29;100.00
62708;BME280;48769;51.624;5.886;2023-07-13T03:28:57;101290.19;;;15.29;100.00
62708;BME280;48769;51.624;5.886;2023-07-13T03:31:26;101297.59;;;15.24;100.00
62708;BME280;48769;51.624;5.886;2023-07-13T03:33:54;101306.53;;;15.23;100.00
62708;BME280;48769;51.624;5.886;2023-07-13T03:36:25;101315.69;;;15.18;100.00
62708;BME280;48769;51.624;5.886;2023-07-13T03:38:54;101315.03;;;15.15;100.00
62708;BME280;48769;51.624;5.886;2023-07-13T03:41:20;101312.06;;;15.19;100.00
62708;BME280;48769;51.624;5.886;2023-07-13T03:43:46;101311.00;;;15.22;100.00
62708;BME280;48769;51.624;5.886;2023-07-13T03:46:13;101315.31;;;15.25;100.00
62708;BME280;48769;51.624;5.886;2023-07-13T03:48:40;101319.78;;;15.24;100.00
62708;BME280;48769;51.624;5.886;2023-07-13T03:51:08;101314.44;;;15.24;100.00
62708;BME280;48769;51.624;5.886;2023-07-13T03:53:38;101325.94;;;15.25;100.00
62708;BME280;48769;51.624;5.886;2023-07-13T03:56:03;101322.50;;;15.23;100.00
62708;BME280;48769;51.624;5.886;2023-07-13T03:58:38;101319.66;;;15.26;100.00
62708;BME280;48769;51.624;5.886;2023-07-13T04:01:06;101329.84;;;15.19;100.00
62708;BME280;48769;51.624;5.886;2023-07-13T04:03:33;101331.66;;;15.18;100.00
62708;BME280;48769;51.624;5.886;2023-07-13T04:06:00;101337.16;;;15.15;100.00
62708;BME280;48769;51.624;5.886;2023-07-13T04:08:27;101338.88;;;15.16;100.00
62708;BME280;48769;51.624;5.886;2023-07-13T04:10:53;101335.66;;;15.11;100.00
62708;BME280;48769;51.624;5.886;2023-07-13T04:13:18;101340.97;;;15.11;100.00
62708;BME280;48769;51.624;5.886;2023-07-13T04:15:43;101340.00;;;15.12;100.00
62708;BME280;48769;51.624;5.886;2023-07-13T04:18:09;101346.84;;;15.16;100.00
62708;BME280;48769;51.624;5.886;2023-07-13T04:20:34;101341.34;;;15.19;100.00
62708;BME280;48769;51.624;5.886;2023-07-13T04:22:59;101334.31;;;15.18;100.00
62708;BME280;48769;51.624;5.886;2023-07-13T04:25:26;101340.28;;;15.22;100.00
62708;BME280;48769;51.624;5.886;2023-07-13T04:27:52;101342.97;;;15.22;100.00
62708;BME280;48769;51.624;5.886;2023-07-13T04:30:18;101348.28;;;15.22;100.00
62708;BME280;48769;51.624;5.886;2023-07-13T04:32:44;101345.88;;;15.17;100.00
62708;BME280;48769;51.624;5.886;2023-07-13T04:35:09;101340.88;;;15.13;100.00
62708;BME280;48769;51.624;5.886;2023-07-13T04:37:35;101339.06;;;15.13;100.00
62708;BME280;48769;51.624;5.886;2023-07-13T04:40:01;101348.56;;;15.17;100.00
62708;BME280;48769;51.624;5.886;2023-07-13T04:42:26;101354.25;;;15.26;100.00
62708;BME280;48769;51.624;5.886;2023-07-13T04:44:52;101362.41;;;15.37;100.00
62708;BME280;48769;51.624;5.886;2023-07-13T04:47:18;101355.13;;;15.40;100.00
62708;BME280;48769;51.624;5.886;2023-07-13T04:49:44;101354.69;;;15.47;100.00
62708;BME280;48769;51.624;5.886;2023-07-13T04:52:09;101360.41;;;15.55;100.00
62708;BME280;48769;51.624;5.886;2023-07-13T04:54:35;101360.00;;;15.61;100.00
62708;BME280;48769;51.624;5.886;2023-07-13T04:57:00;101366.06;;;15.63;100.00
62708;BME280;48769;51.624;5.886;2023-07-13T04:59:26;101363.31;;;15.64;100.00
62708;BME280;48769;51.624;5.886;2023-07-13T05:01:52;101374.66;;;15.68;100.00
62708;BME280;48769;51.624;5.886;2023-07-13T05:04:18;101368.66;;;15.64;100.00
62708;BME280;48769;51.624;5.886;2023-07-13T05:06:43;101364.13;;;15.67;100.00
62708;BME280;48769;51.624;5.886;2023-07-13T05:09:09;101372.47;;;15.75;100.00
62708;BME280;48769;51.624;5.886;2023-07-13T05:11:34;101375.94;;;15.89;100.00
62708;BME280;48769;51.624;5.886;2023-07-13T05:14:00;101385.13;;;16.25;100.00
62708;BME280;48769;51.624;5.886;2023-07-13T05:16:26;101381.22;;;16.44;100.00
62708;BME280;48769;51.624;5.886;2023-07-13T05:18:52;101381.19;;;16.31;100.00
62708;BME280;48769;51.624;5.886;2023-07-13T05:21:17;101380.66;;;16.26;100.00
62708;BME280;48769;51.624;5.886;2023-07-13T05:23:43;101383.53;;;16.23;100.00
62708;BME280;48769;51.624;5.886;2023-07-13T05:26:08;101386.38;;;16.20;100.00
62708;BME280;48769;51.624;5.886;2023-07-13T05:28:34;101390.75;;;16.21;100.00
62708;BME280;48769;51.624;5.886;2023-07-13T05:30:59;101395.03;;;16.23;100.00
62708;BME280;48769;51.624;5.886;2023-07-13T05:33:25;101389.59;;;16.25;100.00
62708;BME280;48769;51.624;5.886;2023-07-13T05:35:51;101392.03;;;16.28;100.00
62708;BME280;48769;51.624;5.886;2023-07-13T05:38:16;101393.78;;;16.29;100.00
62708;BME280;48769;51.624;5.886;2023-07-13T05:40:43;101397.63;;;16.38;100.00
62708;BME280;48769;51.624;5.886;2023-07-13T05:43:09;101394.03;;;16.51;100.00
62708;BME280;48769;51.624;5.886;2023-07-13T05:45:34;101401.72;;;16.56;100.00
62708;BME280;48769;51.624;5.886;2023-07-13T05:47:59;101403.63;;;16.54;100.00
62708;BME280;48769;51.624;5.886;2023-07-13T05:50:26;101403.41;;;16.57;100.00
62708;BME280;48769;51.624;5.886;2023-07-13T05:52:52;101412.19;;;16.59;100.00
62708;BME280;48769;51.624;5.886;2023-07-13T05:55:18;101412.41;;;16.56;100.00
62708;BME280;48769;51.624;5.886;2023-07-13T05:57:43;101411.13;;;16.62;100.00
62708;BME280;48769;51.624;5.886;2023-07-13T06:00:09;101409.19;;;16.64;100.00
62708;BME280;48769;51.624;5.886;2023-07-13T06:02:35;101424.34;;;16.63;100.00
62708;BME280;48769;51.624;5.886;2023-07-13T06:05:00;101422.00;;;16.58;100.00
62708;BME280;48769;51.624;5.886;2023-07-13T06:07:26;101427.13;;;16.62;100.00
62708;BME280;48769;51.624;5.886;2023-07-13T06:09:51;101428.41;;;16.69;100.00
62708;BME280;48769;51.624;5.886;2023-07-13T06:12:16;101432.31;;;16.77;100.00
62708;BME280;48769;51.624;5.886;2023-07-13T06:14:42;101436.34;;;16.83;100.00
62708;BME280;48769;51.624;5.886;2023-07-13T06:17:07;101428.59;;;16.93;100.00
62708;BME280;48769;51.624;5.886;2023-07-13T06:19:33;101432.44;;;17.01;100.00
62708;BME280;48769;51.624;5.886;2023-07-13T06:21:59;101427.66;;;17.07;100.00
62708;BME280;48769;51.624;5.886;2023-07-13T06:24:25;101437.91;;;17.13;100.00
62708;BME280;48769;51.624;5.886;2023-07-13T06:26:50;101440.44;;;17.14;100.00
62708;BME280;48769;51.624;5.886;2023-07-13T06:29:16;101439.19;;;17.20;100.00
62708;BME280;48769;51.624;5.886;2023-07-13T06:31:42;101440.44;;;17.27;100.00
62708;BME280;48769;51.624;5.886;2023-07-13T06:34:07;101447.06;;;17.34;100.00
62708;BME280;48769;51.624;5.886;2023-07-13T06:36:33;101443.00;;;17.41;100.00
62708;BME280;48769;51.624;5.886;2023-07-13T06:38:58;101448.88;;;17.46;100.00
62708;BME280;48769;51.624;5.886;2023-07-13T06:41:23;101447.69;;;17.50;100.00
62708;BME280;48769;51.624;5.886;2023-07-13T06:43:51;101446.00;;;17.49;100.00
62708;BME280;48769;51.624;5.886;2023-07-13T06:46:17;101454.41;;;17.56;100.00
62708;BME280;48769;51.624;5.886;2023-07-13T06:48:43;101447.25;;;17.57;100.00
62708;BME280;48769;51.624;5.886;2023-07-13T06:51:08;101448.22;;;17.56;100.00
62708;BME280;48769;51.624;5.886;2023-07-13T06:53:33;101450.91;;;17.56;100.00
62708;BME280;48769;51.624;5.886;2023-07-13T06:55:59;101451.41;;;17.61;100.00
62708;BME280;48769;51.624;5.886;2023-07-13T06:58:24;101451.63;;;17.58;100.00
62708;BME280;48769;51.624;5.886;2023-07-13T07:00:51;101450.13;;;17.66;100.00
62708;BME280;48769;51.624;5.886;2023-07-13T07:03:17;101448.63;;;17.75;100.00
62708;BME280;48769;51.624;5.886;2023-07-13T07:05:43;101458.34;;;17.76;100.00
62708;BME280;48769;51.624;5.886;2023-07-13T07:08:08;101463.59;;;17.78;100.00
62708;BME280;48769;51.624;5.886;2023-07-13T07:10:34;101463.50;;;17.79;100.00
62708;BME280;48769;51.624;5.886;2023-07-13T07:13:01;101463.03;;;17.72;100.00
62708;BME280;48769;51.624;5.886;2023-07-13T07:15:26;101470.09;;;17.73;100.00
62708;BME280;48769;51.624;5.886;2023-07-13T07:17:52;101468.47;;;17.71;100.00
62708;BME280;48769;51.624;5.886;2023-07-13T07:20:17;101474.19;;;17.79;100.00
62708;BME280;48769;51.624;5.886;2023-07-13T07:22:43;101468.50;;;17.84;100.00
62708;BME280;48769;51.624;5.886;2023-07-13T07:25:08;101471.69;;;17.89;100.00
62708;BME280;48769;51.624;5.886;2023-07-13T07:27:33;101472.63;;;18.01;100.00
62708;BME280;48769;51.624;5.886;2023-07-13T07:29:59;101470.38;;;18.07;100.00
62708;BME280;48769;51.624;5.886;2023-07-13T07:32:25;101473.22;;;18.17;100.00
62708;BME280;48769;51.624;5.886;2023-07-13T07:34:50;101473.63;;;18.24;100.00
62708;BME280;48769;51.624;5.886;2023-07-13T07:37:16;101476.91;;;18.27;100.00
62708;BME280;48769;51.624;5.886;2023-07-13T07:39:43;101480.31;;;18.29;100.00
62708;BME280;48769;51.624;5.886;2023-07-13T07:42:08;101479.59;;;18.27;100.00
62708;BME280;48769;51.624;5.886;2023-07-13T07:44:34;101481.66;;;18.24;100.00
62708;BME280;48769;51.624;5.886;2023-07-13T07:47:00;101486.88;;;18.25;100.00
62708;BME280;48769;51.624;5.886;2023-07-13T07:49:25;101489.44;;;18.27;100.00
62708;BME280;48769;51.624;5.886;2023-07-13T07:51:51;101488.06;;;18.21;100.00
62708;BME280;48769;51.624;5.886;2023-07-13T07:54:16;101491.81;;;18.18;100.00
62708;BME280;48769;51.624;5.886;2023-07-13T07:56:42;101485.63;;;18.18;100.00
62708;BME280;48769;51.624;5.886;2023-07-13T07:59:08;101493.50;;;18.19;100.00
62708;BME280;48769;51.624;5.886;2023-07-13T08:01:33;101486.03;;;18.25;100.00
62708;BME280;48769;51.624;5.886;2023-07-13T08:03:58;101488.25;;;18.31;100.00
62708;BME280;48769;51.624;5.886;2023-07-13T08:06:24;101491.72;;;18.44;100.00
62708;BME280;48769;51.624;5.886;2023-07-13T08:08:50;101492.78;;;18.41;100.00
62708;BME280;48769;51.624;5.886;2023-07-13T08:11:16;101489.31;;;18.52;100.00
62708;BME280;48769;51.624;5.886;2023-07-13T08:13:42;101485.81;;;18.76;100.00
62708;BME280;48769;51.624;5.886;2023-07-13T08:16:08;101486.59;;;18.89;100.00
62708;BME280;48769;51.624;5.886;2023-07-13T08:18:33;101490.59;;;18.95;100.00
62708;BME280;48769;51.624;5.886;2023-07-13T08:21:06;101486.63;;;19.11;100.00
62708;BME280;48769;51.624;5.886;2023-07-13T08:23:32;101479.69;;;19.20;100.00
62708;BME280;48769;51.624;5.886;2023-07-13T08:25:58;101486.53;;;19.24;100.00
62708;BME280;48769;51.624;5.886;2023-07-13T08:28:24;101485.31;;;19.39;100.00
62708;BME280;48769;51.624;5.886;2023-07-13T08:30:49;101480.34;;;19.57;100.00
62708;BME280;48769;51.624;5.886;2023-07-13T08:33:19;101486.31;;;19.61;100.00
62708;BME280;48769;51.624;5.886;2023-07-13T08:35:48;101491.69;;;19.61;100.00
62708;BME280;48769;51.624;5.886;2023-07-13T08:38:14;101479.13;;;19.61;100.00
62708;BME280;48769;51.624;5.886;2023-07-13T08:40:41;101477.41;;;19.49;100.00
62708;BME280;48769;51.624;5.886;2023-07-13T08:43:10;101482.91;;;19.59;100.00
62708;BME280;48769;51.624;5.886;2023-07-13T08:48:20;101483.44;;;19.64;100.00
62708;BME280;48769;51.624;5.886;2023-07-13T08:51:12;101481.72;;;19.74;100.00
62708;BME280;48769;51.624;5.886;2023-07-13T08:53:48;101477.19;;;19.97;100.00
62708;BME280;48769;51.624;5.886;2023-07-13T08:56:23;101472.34;;;20.23;100.00
62708;BME280;48769;51.624;5.886;2023-07-13T08:58:55;101470.59;;;20.45;100.00
62708;BME280;48769;51.624;5.886;2023-07-13T09:01:31;101479.03;;;20.72;100.00
62708;BME280;48769;51.624;5.886;2023-07-13T09:06:42;101477.28;;;20.83;100.00
62708;BME280;48769;51.624;5.886;2023-07-13T09:12:07;101479.50;;;20.45;100.00
62708;BME280;48769;51.624;5.886;2023-07-13T09:14:39;101474.78;;;20.26;100.00
62708;BME280;48769;51.624;5.886;2023-07-13T09:17:13;101474.53;;;20.29;100.00
62708;BME280;48769;51.624;5.886;2023-07-13T09:19:40;101471.44;;;20.45;100.00
62708;BME280;48769;51.624;5.886;2023-07-13T09:22:14;101478.44;;;20.69;100.00
62708;BME280;48769;51.624;5.886;2023-07-13T09:24:50;101461.09;;;20.94;100.00
62708;BME280;48769;51.624;5.886;2023-07-13T09:27:31;101465.75;;;20.92;100.00
62708;BME280;48769;51.624;5.886;2023-07-13T09:30:17;101463.31;;;20.89;100.00
62708;BME280;48769;51.624;5.886;2023-07-13T09:32:51;101465.69;;;21.03;100.00
62708;BME280;48769;51.624;5.886;2023-07-13T09:35:20;101464.44;;;20.86;100.00
62708;BME280;48769;51.624;5.886;2023-07-13T09:37:46;101470.97;;;20.72;100.00
62708;BME280;48769;51.624;5.886;2023-07-13T09:40:49;101468.09;;;20.64;100.00
62708;BME280;48769;51.624;5.886;2023-07-13T09:43:18;101468.72;;;21.10;100.00
62708;BME280;48769;51.624;5.886;2023-07-13T09:45:46;101462.91;;;21.66;100.00
62708;BME280;48769;51.624;5.886;2023-07-13T09:48:16;101476.56;;;22.24;100.00
62708;BME280;48769;51.624;5.886;2023-07-13T09:50:43;101459.69;;;22.51;100.00
62708;BME280;48769;51.624;5.886;2023-07-13T09:53:18;101462.09;;;22.35;100.00
62708;BME280;48769;51.624;5.886;2023-07-13T09:55:47;101450.44;;;22.15;100.00
62708;BME280;48769;51.624;5.886;2023-07-13T09:58:21;101450.69;;;22.02;100.00
62708;BME280;48769;51.624;5.886;2023-07-13T10:03:24;101446.22;;;22.32;100.00
62708;BME280;48769;51.624;5.886;2023-07-13T10:05:52;101445.13;;;22.44;100.00
62708;BME280;48769;51.624;5.886;2023-07-13T10:10:45;101457.72;;;22.24;100.00
62708;BME280;48769;51.624;5.886;2023-07-13T10:13:26;101447.28;;;21.90;100.00
62708;BME280;48769;51.624;5.886;2023-07-13T10:15:52;101441.63;;;22.03;100.00
62708;BME280;48769;51.624;5.886;2023-07-13T10:18:20;101451.59;;;22.22;100.00
62708;BME280;48769;51.624;5.886;2023-07-13T10:20:46;101448.53;;;22.46;100.00
62708;BME280;48769;51.624;5.886;2023-07-13T10:23:17;101452.75;;;22.58;100.00
62708;BME280;48769;51.624;5.886;2023-07-13T10:25:47;101453.34;;;22.72;100.00
62708;BME280;48769;51.624;5.886;2023-07-13T10:28:36;101455.72;;;22.75;100.00
62708;BME280;48769;51.624;5.886;2023-07-13T10:31:04;101452.63;;;22.60;100.00
62708;BME280;48769;51.624;5.886;2023-07-13T10:33:35;101445.84;;;22.46;100.00
62708;BME280;48769;51.624;5.886;2023-07-13T10:36:13;101456.88;;;22.24;100.00
62708;BME280;48769;51.624;5.886;2023-07-13T10:38:40;101446.72;;;22.06;100.00
62708;BME280;48769;51.624;5.886;2023-07-13T10:41:12;101452.56;;;22.11;100.00
62708;BME280;48769;51.624;5.886;2023-07-13T10:43:46;101447.91;;;22.13;100.00
62708;BME280;48769;51.624;5.886;2023-07-13T10:46:16;101447.09;;;22.42;100.00
62708;BME280;48769;51.624;5.886;2023-07-13T10:48:43;101441.28;;;22.47;100.00
62708;BME280;48769;51.624;5.886;2023-07-13T10:51:12;101453.91;;;22.46;100.00
62708;BME280;48769;51.624;5.886;2023-07-13T10:53:38;101455.59;;;22.37;100.00
62708;BME280;48769;51.624;5.886;2023-07-13T10:58:42;101466.84;;;22.02;100.00
62708;BME280;48769;51.624;5.886;2023-07-13T11:01:17;101462.75;;;21.98;100.00
62708;BME280;48769;51.624;5.886;2023-07-13T11:06:10;101467.97;;;22.09;100.00
62708;BME280;48769;51.624;5.886;2023-07-13T11:08:59;101460.47;;;22.13;100.00
62708;BME280;48769;51.624;5.886;2023-07-13T11:18:47;101463.91;;;21.65;100.00
62708;BME280;48769;51.624;5.886;2023-07-13T11:21:25;101466.38;;;21.78;100.00
62708;BME280;48769;51.624;5.886;2023-07-13T11:27:09;101482.13;;;21.92;100.00
62708;BME280;48769;51.624;5.886;2023-07-13T11:29:48;101491.16;;;21.81;100.00
62708;BME280;48769;51.624;5.886;2023-07-13T11:32:25;101498.19;;;21.73;100.00
62708;BME280;48769;51.624;5.886;2023-07-13T11:34:54;101502.22;;;21.88;100.00
62708;BME280;48769;51.624;5.886;2023-07-13T11:37:21;101509.69;;;22.25;100.00
62708;BME280;48769;51.624;5.886;2023-07-13T11:39:47;101507.75;;;22.36;100.00
62708;BME280;48769;51.624;5.886;2023-07-13T11:42:17;101508.31;;;22.50;100.00
62708;BME280;48769;51.624;5.886;2023-07-13T11:44:48;101495.56;;;22.61;100.00
62708;BME280;48769;51.624;5.886;2023-07-13T11:47:20;101499.13;;;22.72;100.00
62708;BME280;48769;51.624;5.886;2023-07-13T11:49:52;101498.53;;;22.78;100.00
62708;BME280;48769;51.624;5.886;2023-07-13T11:52:22;101499.72;;;22.95;100.00
62708;BME280;48769;51.624;5.886;2023-07-13T11:54:51;101502.91;;;23.27;100.00
62708;BME280;48769;51.624;5.886;2023-07-13T11:57:28;101502.97;;;23.45;100.00
62708;BME280;48769;51.624;5.886;2023-07-13T11:59:55;101518.56;;;23.51;100.00
62708;BME280;48769;51.624;5.886;2023-07-13T12:02:33;101519.75;;;23.39;100.00
62708;BME280;48769;51.624;5.886;2023-07-13T12:05:01;101531.56;;;23.28;100.00
62708;BME280;48769;51.624;5.886;2023-07-13T12:07:30;101528.06;;;23.08;100.00
62708;BME280;48769;51.624;5.886;2023-07-13T12:12:33;101525.34;;;22.79;100.00
62708;BME280;48769;51.624;5.886;2023-07-13T12:14:58;101513.31;;;22.93;100.00
62708;BME280;48769;51.624;5.886;2023-07-13T12:17:25;101516.44;;;22.98;100.00
62708;BME280;48769;51.624;5.886;2023-07-13T12:19:52;101509.00;;;22.91;100.00
62708;BME280;48769;51.624;5.886;2023-07-13T12:22:20;101512.28;;;22.75;100.00
62708;BME280;48769;51.624;5.886;2023-07-13T12:24:46;101510.31;;;22.57;100.00
62708;BME280;48769;51.624;5.886;2023-07-13T12:27:25;101507.03;;;22.44;100.00
62708;BME280;48769;51.624;5.886;2023-07-13T12:30:04;101514.53;;;22.31;100.00
62708;BME280;48769;51.624;5.886;2023-07-13T12:32:31;101524.94;;;22.14;100.00
62708;BME280;48769;51.624;5.886;2023-07-13T12:35:17;101529.00;;;21.99;100.00
62708;BME280;48769;51.624;5.886;2023-07-13T12:37:46;101532.19;;;21.83;100.00
62708;BME280;48769;51.624;5.886;2023-07-13T12:40:19;101545.03;;;21.70;100.00
62708;BME280;48769;51.624;5.886;2023-07-13T12:42:46;101541.31;;;21.61;100.00
62708;BME280;48769;51.624;5.886;2023-07-13T12:47:49;101543.16;;;21.40;100.00
62708;BME280;48769;51.624;5.886;2023-07-13T12:50:20;101533.91;;;21.33;100.00
62708;BME280;48769;51.624;5.886;2023-07-13T12:52:51;101528.03;;;21.39;100.00
62708;BME280;48769;51.624;5.886;2023-07-13T12:55:19;101526.09;;;21.51;100.00
62708;BME280;48769;51.624;5.886;2023-07-13T12:57:53;101531.22;;;21.54;100.00
62708;BME280;48769;51.624;5.886;2023-07-13T13:02:51;101525.34;;;21.69;100.00
62708;BME280;48769;51.624;5.886;2023-07-13T13:05:17;101519.44;;;21.76;100.00
62708;BME280;48769;51.624;5.886;2023-07-13T13:07:42;101523.81;;;22.07;100.00
62708;BME280;48769;51.624;5.886;2023-07-13T13:10:12;101510.00;;;22.41;100.00
62708;BME280;48769;51.624;5.886;2023-07-13T13:12:37;101507.50;;;22.69;100.00
62708;BME280;48769;51.624;5.886;2023-07-13T13:15:03;101501.38;;;22.86;100.00
62708;BME280;48769;51.624;5.886;2023-07-13T13:17:32;101499.53;;;22.86;100.00
62708;BME280;48769;51.624;5.886;2023-07-13T13:19:57;101501.97;;;22.99;100.00
62708;BME280;48769;51.624;5.886;2023-07-13T13:22:23;101500.09;;;23.09;100.00